sensor_id;sensor_type;location;lat;lon;timestamp;pressure;altitude;pressure_sealevel;temperature;humidity
71476;BME280;59286;59.274;17.974;2023-02-12T00:00:35;102415.31;;;-4.94;90.23
71476;BME280;59286;59.274;17.974;2023-02-12T00:03:00;102411.81;;;-4.93;90.47
71476;BME280;59286;59.274;17.974;2023-02-12T00:05:25;102406.38;;;-4.90;89.15
71476;BME280;59286;59.274;17.974;2023-02-12T00:07:52;102416.03;;;-4.84;89.21
71476;BME280;59286;59.274;17.974;2023-02-12T00:10:18;102408.66;;;-4.87;89.71
71476;BME280;59286;59.274;17.974;2023-02-12T00:12:43;102407.53;;;-4.84;88.53
71476;BME280;59286;59.274;17.974;2023-02-12T00:15:08;102404.63;;;-4.89;88.97
71476;BME280;59286;59.274;17.974;2023-02-12T00:17:34;102413.78;;;-4.87;88.82
71476;BME280;59286;59.274;17.974;2023-02-12T00:19:59;102410.56;;;-4.89;89.10
71476;BME280;59286;59.274;17.974;2023-02-12T00:22:25;102407.50;;;-4.93;87.85
71476;BME280;59286;59.274;17.974;2023-02-12T00:24:50;102399.03;;;-4.93;87.92
71476;BME280;59286;59.274;17.974;2023-02-12T00:27:15;102402.38;;;-4.93;87.69
71476;BME280;59286;59.274;17.974;2023-02-12T00:29:41;102408.75;;;-4.97;87.41
71476;BME280;59286;59.274;17.974;2023-02-12T00:32:06;102395.16;;;-4.97;87.80
71476;BME280;59286;59.274;17.974;2023-02-12T00:34:31;102383.47;;;-5.00;87.91
71476;BME280;59286;59.274;17.974;2023-02-12T00:36:57;102379.75;;;-5.05;88.56
71476;BME280;59286;59.274;17.974;2023-02-12T00:39:22;102388.38;;;-5.06;88.70
71476;BME280;59286;59.274;17.974;2023-02-12T00:41:47;102380.56;;;-5.05;88.86
71476;BME280;59286;59.274;17.974;2023-02-12T00:44:13;102377.84;;;-5.03;89.27
71476;BME280;59286;59.274;17.974;2023-02-12T00:46:39;102377.69;;;-5.02;89.06
71476;BME280;59286;59.274;17.974;2023-02-12T00:49:04;102383.19;;;-4.97;88.87
71476;BME280;59286;59.274;17.974;2023-02-12T00:51:30;102379.81;;;-4.97;89.17
71476;BME280;59286;59.274;17.974;2023-02-12T00:53:55;102382.22;;;-4.96;89.20
71476;BME280;59286;59.274;17.974;2023-02-12T00:56:20;102375.66;;;-4.98;89.02
71476;BME280;59286;59.274;17.974;2023-02-12T00:58:46;102373.78;;;-4.96;89.21
71476;BME280;59286;59.274;17.974;2023-02-12T01:01:11;102377.59;;;-4.92;88.67
71476;BME280;59286;59.274;17.974;2023-02-12T01:03:36;102385.78;;;-4.88;89.60
71476;BME280;59286;59.274;17.974;2023-02-12T01:06:03;102385.94;;;-4.90;88.60
71476;BME280;59286;59.274;17.974;2023-02-12T01:08:28;102390.88;;;-4.88;88.12
71476;BME280;59286;59.274;17.974;2023-02-12T01:11:02;102393.00;;;-4.84;88.95
71476;BME280;59286;59.274;17.974;2023-02-12T01:13:29;102393.50;;;-4.80;89.49
71476;BME280;59286;59.274;17.974;2023-02-12T01:16:02;102404.63;;;-4.72;89.78
71476;BME280;59286;59.274;17.974;2023-02-12T01:18:28;102393.91;;;-4.67;89.84
71476;BME280;59286;59.274;17.974;2023-02-12T01:20:53;102374.28;;;-4.67;89.86
71476;BME280;59286;59.274;17.974;2023-02-12T01:23:18;102386.81;;;-4.56;89.74
71476;BME280;59286;59.274;17.974;2023-02-12T01:25:44;102377.53;;;-4.57;89.53
71476;BME280;59286;59.274;17.974;2023-02-12T01:28:09;102383.94;;;-4.53;89.48
71476;BME280;59286;59.274;17.974;2023-02-12T01:30:35;102379.47;;;-4.51;89.31
71476;BME280;59286;59.274;17.974;2023-02-12T01:33:00;102381.09;;;-4.50;89.83
71476;BME280;59286;59.274;17.974;2023-02-12T01:35:26;102392.63;;;-4.46;90.01
71476;BME280;59286;59.274;17.974;2023-02-12T01:37:51;102393.63;;;-4.39;90.18
71476;BME280;59286;59.274;17.974;2023-02-12T01:40:17;102388.03;;;-4.34;89.98
71476;BME280;59286;59.274;17.974;2023-02-12T01:42:42;102391.06;;;-4.31;90.65
71476;BME280;59286;59.274;17.974;2023-02-12T01:47:36;102393.69;;;-4.23;90.11
71476;BME280;59286;59.274;17.974;2023-02-12T01:50:01;102389.88;;;-4.19;89.78
71476;BME280;59286;59.274;17.974;2023-02-12T01:52:33;102398.19;;;-4.17;89.73
71476;BME280;59286;59.274;17.974;2023-02-12T01:55:03;102400.44;;;-4.14;89.91
71476;BME280;59286;59.274;17.974;2023-02-12T01:57:32;102405.91;;;-4.09;89.64
71476;BME280;59286;59.274;17.974;2023-02-12T02:00:00;102405.94;;;-4.01;89.89
71476;BME280;59286;59.274;17.974;2023-02-12T02:02:27;102392.03;;;-3.98;90.02
71476;BME280;59286;59.274;17.974;2023-02-12T02:04:58;102388.03;;;-3.92;90.26
71476;BME280;59286;59.274;17.974;2023-02-12T02:07:25;102385.53;;;-3.84;90.18
71476;BME280;59286;59.274;17.974;2023-02-12T02:09:50;102381.38;;;-3.77;90.42
71476;BME280;59286;59.274;17.974;2023-02-12T02:12:16;102362.19;;;-3.73;90.19
71476;BME280;59286;59.274;17.974;2023-02-12T02:15:02;102378.84;;;-3.61;90.14
71476;BME280;59286;59.274;17.974;2023-02-12T02:17:50;102370.53;;;-3.55;89.74
71476;BME280;59286;59.274;17.974;2023-02-12T02:31:19;102359.66;;;-3.41;88.63
71476;BME280;59286;59.274;17.974;2023-02-12T02:37:14;102342.66;;;-3.26;88.21
71476;BME280;59286;59.274;17.974;2023-02-12T02:39:51;102338.03;;;-3.23;88.04
71476;BME280;59286;59.274;17.974;2023-02-12T02:42:24;102339.00;;;-3.16;88.28
71476;BME280;59286;59.274;17.974;2023-02-12T02:47:22;102338.81;;;-3.06;88.59
71476;BME280;59286;59.274;17.974;2023-02-12T02:49:57;102340.06;;;-3.02;88.16
71476;BME280;59286;59.274;17.974;2023-02-12T02:52:30;102333.03;;;-3.00;87.86
71476;BME280;59286;59.274;17.974;2023-02-12T02:55:02;102322.13;;;-2.94;87.82
71476;BME280;59286;59.274;17.974;2023-02-12T02:57:35;102327.56;;;-2.89;87.73
71476;BME280;59286;59.274;17.974;2023-02-12T03:00:25;102334.59;;;-2.83;87.54
71476;BME280;59286;59.274;17.974;2023-02-12T03:02:58;102328.81;;;-2.77;87.69
71476;BME280;59286;59.274;17.974;2023-02-12T03:05:31;102344.22;;;-2.69;87.26
71476;BME280;59286;59.274;17.974;2023-02-12T03:08:17;102339.38;;;-2.64;87.07
71476;BME280;59286;59.274;17.974;2023-02-12T03:10:52;102335.69;;;-2.61;86.87
71476;BME280;59286;59.274;17.974;2023-02-12T03:13:24;102337.09;;;-2.59;87.00
71476;BME280;59286;59.274;17.974;2023-02-12T03:16:01;102323.31;;;-2.58;86.80
71476;BME280;59286;59.274;17.974;2023-02-12T03:18:35;102326.19;;;-2.53;86.83
71476;BME280;59286;59.274;17.974;2023-02-12T03:21:10;102327.00;;;-2.52;86.59
71476;BME280;59286;59.274;17.974;2023-02-12T03:23:41;102331.94;;;-2.43;87.02
71476;BME280;59286;59.274;17.974;2023-02-12T03:26:28;102320.19;;;-2.37;86.92
71476;BME280;59286;59.274;17.974;2023-02-12T03:28:57;102315.53;;;-2.34;86.70
71476;BME280;59286;59.274;17.974;2023-02-12T03:31:37;102309.09;;;-2.30;86.51
71476;BME280;59286;59.274;17.974;2023-02-12T03:37:02;102307.09;;;-2.20;86.26
71476;BME280;59286;59.274;17.974;2023-02-12T03:42:10;102298.63;;;-2.20;86.35
71476;BME280;59286;59.274;17.974;2023-02-12T03:44:52;102286.91;;;-2.23;85.96
71476;BME280;59286;59.274;17.974;2023-02-12T03:50:02;102298.63;;;-2.20;86.19
71476;BME280;59286;59.274;17.974;2023-02-12T03:52:31;102297.19;;;-2.23;86.06
71476;BME280;59286;59.274;17.974;2023-02-12T03:54:57;102309.00;;;-2.14;85.80
71476;BME280;59286;59.274;17.974;2023-02-12T03:57:25;102296.16;;;-2.14;85.78
71476;BME280;59286;59.274;17.974;2023-02-12T03:59:55;102293.41;;;-2.12;85.90
71476;BME280;59286;59.274;17.974;2023-02-12T04:02:21;102287.66;;;-2.14;86.00
71476;BME280;59286;59.274;17.974;2023-02-12T04:04:46;102278.19;;;-2.14;85.47
71476;BME280;59286;59.274;17.974;2023-02-12T04:07:13;102272.38;;;-2.08;85.90
71476;BME280;59286;59.274;17.974;2023-02-12T04:09:39;102274.94;;;-2.08;86.17
71476;BME280;59286;59.274;17.974;2023-02-12T04:12:38;102267.41;;;-2.09;85.40
71476;BME280;59286;59.274;17.974;2023-02-12T04:18:24;102272.34;;;-2.00;85.69
71476;BME280;59286;59.274;17.974;2023-02-12T04:20:53;102261.72;;;-1.97;85.62
71476;BME280;59286;59.274;17.974;2023-02-12T04:23:43;102275.38;;;-1.96;85.70
71476;BME280;59286;59.274;17.974;2023-02-12T04:26:35;102260.09;;;-1.98;85.83
71476;BME280;59286;59.274;17.974;2023-02-12T04:34:38;102261.19;;;-1.92;86.11
71476;BME280;59286;59.274;17.974;2023-02-12T04:37:16;102269.03;;;-1.85;85.66
71476;BME280;59286;59.274;17.974;2023-02-12T04:39:43;102272.22;;;-1.83;85.53
71476;BME280;59286;59.274;17.974;2023-02-12T04:42:09;102276.72;;;-1.85;85.87
71476;BME280;59286;59.274;17.974;2023-02-12T04:44:38;102278.66;;;-1.87;86.38
71476;BME280;59286;59.274;17.974;2023-02-12T04:47:04;102257.84;;;-1.92;86.24
71476;BME280;59286;59.274;17.974;2023-02-12T04:49:29;102273.88;;;-1.90;86.09
71476;BME280;59286;59.274;17.974;2023-02-12T04:51:55;102277.53;;;-1.85;86.15
71476;BME280;59286;59.274;17.974;2023-02-12T04:54:22;102269.38;;;-1.88;86.60
71476;BME280;59286;59.274;17.974;2023-02-12T04:56:47;102271.22;;;-1.82;86.51
71476;BME280;59286;59.274;17.974;2023-02-12T04:59:13;102270.91;;;-1.79;86.08
71476;BME280;59286;59.274;17.974;2023-02-12T05:01:39;102245.63;;;-1.90;86.94
71476;BME280;59286;59.274;17.974;2023-02-12T05:04:06;102244.91;;;-1.84;87.08
71476;BME280;59286;59.274;17.974;2023-02-12T05:06:36;102242.66;;;-1.79;87.65
71476;BME280;59286;59.274;17.974;2023-02-12T05:09:02;102251.88;;;-1.70;87.38
71476;BME280;59286;59.274;17.974;2023-02-12T05:11:28;102240.63;;;-1.69;87.45
71476;BME280;59286;59.274;17.974;2023-02-12T05:13:54;102230.47;;;-1.63;87.17
71476;BME280;59286;59.274;17.974;2023-02-12T05:16:20;102227.97;;;-1.56;87.15
71476;BME280;59286;59.274;17.974;2023-02-12T05:18:46;102229.22;;;-1.52;87.01
71476;BME280;59286;59.274;17.974;2023-02-12T05:21:12;102230.22;;;-1.53;87.07
71476;BME280;59286;59.274;17.974;2023-02-12T05:23:38;102217.38;;;-1.53;87.57
71476;BME280;59286;59.274;17.974;2023-02-12T05:26:06;102218.00;;;-1.51;87.46
71476;BME280;59286;59.274;17.974;2023-02-12T05:28:32;102214.53;;;-1.44;87.13
71476;BME280;59286;59.274;17.974;2023-02-12T05:31:01;102212.41;;;-1.40;86.94
71476;BME280;59286;59.274;17.974;2023-02-12T05:33:28;102209.22;;;-1.42;86.99
71476;BME280;59286;59.274;17.974;2023-02-12T05:35:53;102200.50;;;-1.41;87.44
71476;BME280;59286;59.274;17.974;2023-02-12T05:38:19;102193.44;;;-1.39;87.19
71476;BME280;59286;59.274;17.974;2023-02-12T05:40:45;102183.06;;;-1.46;87.39
71476;BME280;59286;59.274;17.974;2023-02-12T05:43:10;102176.75;;;-1.43;87.31
71476;BME280;59286;59.274;17.974;2023-02-12T05:45:35;102170.97;;;-1.45;87.29
71476;BME280;59286;59.274;17.974;2023-02-12T05:48:02;102172.94;;;-1.47;87.94
71476;BME280;59286;59.274;17.974;2023-02-12T05:50:27;102173.13;;;-1.49;88.05
71476;BME280;59286;59.274;17.974;2023-02-12T05:52:53;102171.16;;;-1.47;87.99
71476;BME280;59286;59.274;17.974;2023-02-12T05:55:18;102163.44;;;-1.47;88.20
71476;BME280;59286;59.274;17.974;2023-02-12T05:57:43;102172.59;;;-1.44;88.39
71476;BME280;59286;59.274;17.974;2023-02-12T06:00:09;102167.47;;;-1.44;88.34
71476;BME280;59286;59.274;17.974;2023-02-12T06:02:35;102151.03;;;-1.43;88.26
71476;BME280;59286;59.274;17.974;2023-02-12T06:05:01;102167.38;;;-1.36;88.23
71476;BME280;59286;59.274;17.974;2023-02-12T06:07:26;102160.63;;;-1.37;88.57
71476;BME280;59286;59.274;17.974;2023-02-12T06:09:51;102166.38;;;-1.35;88.61
71476;BME280;59286;59.274;17.974;2023-02-12T06:12:17;102174.22;;;-1.29;88.68
71476;BME280;59286;59.274;17.974;2023-02-12T06:14:42;102185.09;;;-1.27;88.90
71476;BME280;59286;59.274;17.974;2023-02-12T06:17:08;102180.13;;;-1.28;88.80
71476;BME280;59286;59.274;17.974;2023-02-12T06:19:33;102177.47;;;-1.20;88.98
71476;BME280;59286;59.274;17.974;2023-02-12T06:21:59;102173.47;;;-1.23;89.24
71476;BME280;59286;59.274;17.974;2023-02-12T06:24:24;102172.59;;;-1.15;89.11
71476;BME280;59286;59.274;17.974;2023-02-12T06:26:50;102165.50;;;-1.13;89.16
71476;BME280;59286;59.274;17.974;2023-02-12T06:29:16;102163.34;;;-1.10;89.29
71476;BME280;59286;59.274;17.974;2023-02-12T06:31:42;102150.25;;;-1.15;89.55
71476;BME280;59286;59.274;17.974;2023-02-12T06:34:09;102173.75;;;-1.03;89.09
71476;BME280;59286;59.274;17.974;2023-02-12T06:36:40;102169.22;;;-1.01;89.18
71476;BME280;59286;59.274;17.974;2023-02-12T06:39:07;102154.84;;;-0.95;89.54
71476;BME280;59286;59.274;17.974;2023-02-12T06:41:32;102153.50;;;-0.91;89.49
71476;BME280;59286;59.274;17.974;2023-02-12T06:43:58;102165.47;;;-0.84;89.12
71476;BME280;59286;59.274;17.974;2023-02-12T06:46:23;102144.25;;;-0.86;89.28
71476;BME280;59286;59.274;17.974;2023-02-12T06:48:52;102148.66;;;-0.80;89.18
71476;BME280;59286;59.274;17.974;2023-02-12T06:51:18;102156.47;;;-0.73;89.09
71476;BME280;59286;59.274;17.974;2023-02-12T06:53:46;102155.31;;;-0.71;89.28
71476;BME280;59286;59.274;17.974;2023-02-12T06:56:12;102156.91;;;-0.70;89.09
71476;BME280;59286;59.274;17.974;2023-02-12T06:58:39;102153.97;;;-0.67;89.10
71476;BME280;59286;59.274;17.974;2023-02-12T07:01:17;102156.91;;;-0.70;88.88
71476;BME280;59286;59.274;17.974;2023-02-12T07:03:47;102150.75;;;-0.69;89.15
71476;BME280;59286;59.274;17.974;2023-02-12T07:06:13;102152.38;;;-0.68;89.20
71476;BME280;59286;59.274;17.974;2023-02-12T07:08:39;102154.84;;;-0.60;89.23
71476;BME280;59286;59.274;17.974;2023-02-12T07:11:04;102151.66;;;-0.62;89.59
71476;BME280;59286;59.274;17.974;2023-02-12T07:13:30;102150.47;;;-0.59;89.75
71476;BME280;59286;59.274;17.974;2023-02-12T07:16:02;102145.13;;;-0.58;89.41
71476;BME280;59286;59.274;17.974;2023-02-12T07:18:27;102135.44;;;-0.56;89.76
71476;BME280;59286;59.274;17.974;2023-02-12T07:20:55;102130.19;;;-0.48;89.50
71476;BME280;59286;59.274;17.974;2023-02-12T07:23:20;102131.00;;;-0.47;89.36
71476;BME280;59286;59.274;17.974;2023-02-12T07:25:59;102126.81;;;-0.48;89.17
71476;BME280;59286;59.274;17.974;2023-02-12T07:28:25;102138.91;;;-0.49;88.86
71476;BME280;59286;59.274;17.974;2023-02-12T07:30:51;102147.84;;;-0.45;88.92
71476;BME280;59286;59.274;17.974;2023-02-12T07:33:17;102136.56;;;-0.44;89.22
71476;BME280;59286;59.274;17.974;2023-02-12T07:35:42;102135.16;;;-0.46;89.26
71476;BME280;59286;59.274;17.974;2023-02-12T07:38:08;102137.00;;;-0.40;89.34
71476;BME280;59286;59.274;17.974;2023-02-12T07:40:33;102128.91;;;-0.37;89.29
71476;BME280;59286;59.274;17.974;2023-02-12T07:42:59;102129.34;;;-0.34;89.30
71476;BME280;59286;59.274;17.974;2023-02-12T07:45:24;102133.88;;;-0.36;89.13
71476;BME280;59286;59.274;17.974;2023-02-12T07:47:50;102131.94;;;-0.34;89.17
71476;BME280;59286;59.274;17.974;2023-02-12T07:50:15;102129.34;;;-0.34;89.33
71476;BME280;59286;59.274;17.974;2023-02-12T07:52:41;102133.31;;;-0.31;89.06
71476;BME280;59286;59.274;17.974;2023-02-12T07:55:06;102124.44;;;-0.29;89.13
71476;BME280;59286;59.274;17.974;2023-02-12T07:57:33;102138.47;;;-0.31;89.51
71476;BME280;59286;59.274;17.974;2023-02-12T07:59:59;102126.59;;;-0.32;89.53
71476;BME280;59286;59.274;17.974;2023-02-12T08:02:24;102126.41;;;-0.31;89.75
71476;BME280;59286;59.274;17.974;2023-02-12T08:04:54;102133.63;;;-0.20;89.89
71476;BME280;59286;59.274;17.974;2023-02-12T08:07:19;102125.91;;;-0.20;89.82
71476;BME280;59286;59.274;17.974;2023-02-12T08:09:45;102124.34;;;-0.14;89.64
71476;BME280;59286;59.274;17.974;2023-02-12T08:12:10;102115.81;;;-0.15;89.86
71476;BME280;59286;59.274;17.974;2023-02-12T08:14:35;102102.59;;;-0.12;89.78
71476;BME280;59286;59.274;17.974;2023-02-12T08:17:01;102098.28;;;-0.05;89.75
71476;BME280;59286;59.274;17.974;2023-02-12T08:19:26;102089.13;;;-0.07;90.00
71476;BME280;59286;59.274;17.974;2023-02-12T08:21:52;102081.66;;;-0.02;89.78
71476;BME280;59286;59.274;17.974;2023-02-12T08:24:18;102076.53;;;0.05;89.90
71476;BME280;59286;59.274;17.974;2023-02-12T08:26:43;102061.88;;;0.05;89.87
71476;BME280;59286;59.274;17.974;2023-02-12T08:29:12;102073.00;;;0.12;90.05
71476;BME280;59286;59.274;17.974;2023-02-12T08:31:40;102069.88;;;0.17;89.77
71476;BME280;59286;59.274;17.974;2023-02-12T08:34:06;102066.69;;;0.15;90.22
71476;BME280;59286;59.274;17.974;2023-02-12T08:36:37;102061.00;;;0.26;90.06
71476;BME280;59286;59.274;17.974;2023-02-12T08:39:03;102054.00;;;0.20;89.69
71476;BME280;59286;59.274;17.974;2023-02-12T08:41:29;102060.00;;;0.27;90.27
71476;BME280;59286;59.274;17.974;2023-02-12T08:43:57;102049.94;;;0.32;90.04
71476;BME280;59286;59.274;17.974;2023-02-12T08:46:31;102048.31;;;0.31;90.02
71476;BME280;59286;59.274;17.974;2023-02-12T08:49:00;102054.16;;;0.46;90.36
71476;BME280;59286;59.274;17.974;2023-02-12T08:51:28;102048.44;;;0.50;90.20
71476;BME280;59286;59.274;17.974;2023-02-12T08:53:57;102050.56;;;0.47;90.05
71476;BME280;59286;59.274;17.974;2023-02-12T08:56:24;102054.00;;;0.54;89.80
71476;BME280;59286;59.274;17.974;2023-02-12T08:58:50;102048.44;;;0.57;89.86
71476;BME280;59286;59.274;17.974;2023-02-12T09:01:19;102058.97;;;0.62;89.88
71476;BME280;59286;59.274;17.974;2023-02-12T09:03:46;102075.69;;;0.72;89.75
71476;BME280;59286;59.274;17.974;2023-02-12T09:06:13;102052.66;;;0.71;89.17
71476;BME280;59286;59.274;17.974;2023-02-12T09:08:39;102072.16;;;0.80;89.26
71476;BME280;59286;59.274;17.974;2023-02-12T09:11:13;102077.06;;;0.75;89.51
71476;BME280;59286;59.274;17.974;2023-02-12T09:13:41;102083.44;;;0.79;89.52
71476;BME280;59286;59.274;17.974;2023-02-12T09:16:07;102077.31;;;0.80;88.92
71476;BME280;59286;59.274;17.974;2023-02-12T09:18:34;102079.91;;;0.86;89.22
71476;BME280;59286;59.274;17.974;2023-02-12T09:21:11;102082.88;;;0.90;89.02
71476;BME280;59286;59.274;17.974;2023-02-12T09:23:38;102088.44;;;0.87;89.67
71476;BME280;59286;59.274;17.974;2023-02-12T09:26:05;102090.88;;;0.95;89.57
71476;BME280;59286;59.274;17.974;2023-02-12T09:28:31;102086.50;;;1.02;88.90
71476;BME280;59286;59.274;17.974;2023-02-12T09:30:56;102095.25;;;1.08;88.90
71476;BME280;59286;59.274;17.974;2023-02-12T09:33:22;102082.56;;;1.13;88.82
71476;BME280;59286;59.274;17.974;2023-02-12T09:35:48;102079.41;;;1.17;88.85
71476;BME280;59286;59.274;17.974;2023-02-12T09:38:14;102074.25;;;1.17;89.05
71476;BME280;59286;59.274;17.974;2023-02-12T09:48:53;102055.16;;;1.18;89.55
71476;BME280;59286;59.274;17.974;2023-02-12T09:51:21;102049.22;;;1.24;89.00
71476;BME280;59286;59.274;17.974;2023-02-12T09:53:59;102024.97;;;1.25;89.06
71476;BME280;59286;59.274;17.974;2023-02-12T09:56:26;102020.81;;;1.31;89.34
71476;BME280;59286;59.274;17.974;2023-02-12T09:59:04;102010.28;;;1.32;89.54
71476;BME280;59286;59.274;17.974;2023-02-12T10:01:30;102014.28;;;1.41;89.02
71476;BME280;59286;59.274;17.974;2023-02-12T10:03:56;102023.81;;;1.47;88.87
71476;BME280;59286;59.274;17.974;2023-02-12T10:06:50;102008.09;;;1.49;88.85
71476;BME280;59286;59.274;17.974;2023-02-12T10:09:38;102004.91;;;1.53;88.91
71476;BME280;59286;59.274;17.974;2023-02-12T10:12:35;101996.94;;;1.55;89.09
71476;BME280;59286;59.274;17.974;2023-02-12T10:15:30;101998.75;;;1.61;89.13
71476;BME280;59286;59.274;17.974;2023-02-12T10:18:09;102007.47;;;1.66;88.82
71476;BME280;59286;59.274;17.974;2023-02-12T10:26:41;102012.25;;;1.76;89.29
71476;BME280;59286;59.274;17.974;2023-02-12T10:29:24;102024.56;;;1.80;89.15
71476;BME280;59286;59.274;17.974;2023-02-12T10:31:54;102008.66;;;1.83;89.01
71476;BME280;59286;59.274;17.974;2023-02-12T10:34:25;102014.22;;;1.87;88.83
71476;BME280;59286;59.274;17.974;2023-02-12T10:36:57;102010.84;;;1.86;88.85
71476;BME280;59286;59.274;17.974;2023-02-12T10:39:32;102002.69;;;1.89;88.98
71476;BME280;59286;59.274;17.974;2023-02-12T10:42:05;102003.28;;;1.91;89.22
71476;BME280;59286;59.274;17.974;2023-02-12T10:44:33;101998.69;;;1.87;89.14
71476;BME280;59286;59.274;17.974;2023-02-12T10:47:00;101984.38;;;1.91;88.87
71476;BME280;59286;59.274;17.974;2023-02-12T10:49:25;101996.72;;;1.95;89.48
71476;BME280;59286;59.274;17.974;2023-02-12T10:57:35;101986.34;;;2.09;89.09
71476;BME280;59286;59.274;17.974;2023-02-12T11:05:36;101981.50;;;2.19;89.21
71476;BME280;59286;59.274;17.974;2023-02-12T11:08:03;101988.06;;;2.21;89.20
71476;BME280;59286;59.274;17.974;2023-02-12T11:10:32;101985.44;;;2.28;89.39
71476;BME280;59286;59.274;17.974;2023-02-12T11:13:00;101975.09;;;2.28;88.80
71476;BME280;59286;59.274;17.974;2023-02-12T11:15:33;101970.72;;;2.28;88.87
71476;BME280;59286;59.274;17.974;2023-02-12T11:18:02;101973.91;;;2.37;88.72
71476;BME280;59286;59.274;17.974;2023-02-12T11:20:36;101970.28;;;2.38;88.42
71476;BME280;59286;59.274;17.974;2023-02-12T11:23:05;101958.53;;;2.42;88.61
71476;BME280;59286;59.274;17.974;2023-02-12T11:25:36;101972.22;;;2.49;88.32
71476;BME280;59286;59.274;17.974;2023-02-12T11:30:28;101972.00;;;2.50;88.24
71476;BME280;59286;59.274;17.974;2023-02-12T11:32:53;101954.13;;;2.49;88.57
71476;BME280;59286;59.274;17.974;2023-02-12T11:35:23;101962.25;;;2.52;88.64
71476;BME280;59286;59.274;17.974;2023-02-12T11:37:54;101966.81;;;2.57;88.64
71476;BME280;59286;59.274;17.974;2023-02-12T11:40:23;101962.22;;;2.59;88.36
71476;BME280;59286;59.274;17.974;2023-02-12T11:42:56;101950.50;;;2.56;88.57
71476;BME280;59286;59.274;17.974;2023-02-12T11:45:28;101953.44;;;2.60;88.13
71476;BME280;59286;59.274;17.974;2023-02-12T11:47:55;101950.06;;;2.59;88.36
71476;BME280;59286;59.274;17.974;2023-02-12T11:50:25;101947.81;;;2.69;88.34
71476;BME280;59286;59.274;17.974;2023-02-12T11:52:59;101950.78;;;2.73;88.41
71476;BME280;59286;59.274;17.974;2023-02-12T11:55:29;101945.75;;;2.78;88.57
71476;BME280;59286;59.274;17.974;2023-02-12T11:58:04;101949.31;;;2.83;87.87
71476;BME280;59286;59.274;17.974;2023-02-12T12:00:45;101938.41;;;2.81;87.67
71476;BME280;59286;59.274;17.974;2023-02-12T12:06:19;101934.75;;;2.89;87.57
71476;BME280;59286;59.274;17.974;2023-02-12T12:08:52;101925.03;;;2.84;87.77
71476;BME280;59286;59.274;17.974;2023-02-12T12:14:24;101940.56;;;2.84;88.14
71476;BME280;59286;59.274;17.974;2023-02-12T12:16:58;101942.09;;;2.92;87.85
71476;BME280;59286;59.274;17.974;2023-02-12T12:19:53;101933.31;;;2.93;87.67
71476;BME280;59286;59.274;17.974;2023-02-12T12:22:38;101928.41;;;2.85;87.63
71476;BME280;59286;59.274;17.974;2023-02-12T12:25:14;101927.00;;;2.89;87.92
71476;BME280;59286;59.274;17.974;2023-02-12T12:27:53;101929.16;;;2.92;87.98
71476;BME280;59286;59.274;17.974;2023-02-12T12:30:40;101923.97;;;2.92;87.99
71476;BME280;59286;59.274;17.974;2023-02-12T12:36:25;101927.78;;;2.89;88.09
71476;BME280;59286;59.274;17.974;2023-02-12T12:46:45;101940.47;;;2.97;88.30
71476;BME280;59286;59.274;17.974;2023-02-12T12:51:59;101936.09;;;2.98;88.59
71476;BME280;59286;59.274;17.974;2023-02-12T13:00:01;101913.03;;;2.90;88.76
71476;BME280;59286;59.274;17.974;2023-02-12T13:03:36;101923.53;;;2.95;88.62
71476;BME280;59286;59.274;17.974;2023-02-12T13:05:58;101919.38;;;2.94;88.83
71476;BME280;59286;59.274;17.974;2023-02-12T13:13:52;101917.38;;;2.96;88.69
71476;BME280;59286;59.274;17.974;2023-02-12T13:16:29;101917.63;;;2.88;89.24
71476;BME280;59286;59.274;17.974;2023-02-12T13:21:54;101936.09;;;2.98;89.08
71476;BME280;59286;59.274;17.974;2023-02-12T13:24:37;101922.59;;;2.89;89.22
71476;BME280;59286;59.274;17.974;2023-02-12T13:27:11;101932.72;;;2.91;89.37
71476;BME280;59286;59.274;17.974;2023-02-12T13:29:43;101933.75;;;2.90;89.66
71476;BME280;59286;59.274;17.974;2023-02-12T13:32:22;101936.56;;;2.88;89.77
71476;BME280;59286;59.274;17.974;2023-02-12T13:34:49;101930.19;;;2.84;89.72
71476;BME280;59286;59.274;17.974;2023-02-12T13:37:24;101926.81;;;2.84;89.89
71476;BME280;59286;59.274;17.974;2023-02-12T13:39:59;101922.66;;;2.83;90.03
71476;BME280;59286;59.274;17.974;2023-02-12T13:42:36;101926.22;;;2.82;90.47
71476;BME280;59286;59.274;17.974;2023-02-12T13:58:52;101944.22;;;2.70;90.83
71476;BME280;59286;59.274;17.974;2023-02-12T14:01:47;101949.00;;;2.73;91.11
71476;BME280;59286;59.274;17.974;2023-02-12T14:06:51;101937.09;;;2.66;91.17
71476;BME280;59286;59.274;17.974;2023-02-12T14:09:20;101942.06;;;2.67;91.46
71476;BME280;59286;59.274;17.974;2023-02-12T14:11:52;101940.31;;;2.61;91.31
71476;BME280;59286;59.274;17.974;2023-02-12T14:14:36;101941.47;;;2.65;91.21
71476;BME280;59286;59.274;17.974;2023-02-12T14:27:49;101943.19;;;2.47;92.01
71476;BME280;59286;59.274;17.974;2023-02-12T14:38:01;101948.03;;;2.37;92.80
71476;BME280;59286;59.274;17.974;2023-02-12T14:53:49;101926.88;;;2.02;94.30
71476;BME280;59286;59.274;17.974;2023-02-12T14:56:19;101944.97;;;2.09;93.88
71476;BME280;59286;59.274;17.974;2023-02-12T14:58:45;101947.75;;;2.01;94.42
71476;BME280;59286;59.274;17.974;2023-02-12T15:01:12;101946.59;;;1.96;94.80
71476;BME280;59286;59.274;17.974;2023-02-12T15:03:47;101946.59;;;1.96;95.55
71476;BME280;59286;59.274;17.974;2023-02-12T15:06:22;101940.22;;;1.92;94.96
71476;BME280;59286;59.274;17.974;2023-02-12T15:08:56;101945.41;;;1.92;95.24
71476;BME280;59286;59.274;17.974;2023-02-12T15:14:35;101952.00;;;1.82;95.20
71476;BME280;59286;59.274;17.974;2023-02-12T15:17:09;101941.47;;;1.77;95.86
71476;BME280;59286;59.274;17.974;2023-02-12T15:19:56;101941.47;;;1.77;96.29
71476;BME280;59286;59.274;17.974;2023-02-12T15:22:32;101946.66;;;1.70;96.60
71476;BME280;59286;59.274;17.974;2023-02-12T15:25:22;101957.00;;;1.70;96.50